Latest Weather Observations for Newman Airport

IDW60801

Issued at 5:53 am WST Saturday 10 December 2022 (issued every 10 minutes, with the page automatically refreshed every 10 minutes)

About weather observations | Map of weather stations | Latest weather observations for WA | Other Formats
Station Details ID: 007176 Name: NEWMAN AERO Lat: -23.42 Lon: 119.80 Height: 524.0 m
Data from the previous 72 hours. | See also: Recent months at Newman Airport
Date/Time
WST
Temp
°C
App
Temp
°C
Dew
Point
°C
Rel
Hum
%
Delta-T
°C
Wind Press
QNH
hPa
Press
MSL
hPa
Rain since
9am
mm
Dir  Spd
km/h
Gust
km/h
Spd
kts
Gust
kts
10/05:30am 24.8 21.9 6.5 31 9.7 SW 11 13 6 7 1012.3 1007.8 0.0
10/05:00am 24.4 21.5 6.6 32 9.5 SW 11 15 6 8 1012.1 1007.6 0.0
10/04:30am 24.9 22.4 6.6 31 9.7 W 9 9 5 5 1012.1 1007.6 0.0
10/04:00am 25.7 23.5 6.3 29 10.3 W 7 9 4 5 1011.6 1007.2 0.0
10/03:30am 26.3 23.4 6.4 28 10.6 SW 11 13 6 7 1011.1 1006.6 0.0
10/03:00am 26.9 24.3 6.3 27 11.0 SW 9 11 5 6 1011.2 1006.7 0.0
10/02:30am 28.0 25.0 6.2 25 11.7 WSW 11 13 6 7 1011.2 1006.7 0.0
10/02:00am 28.9 26.0 6.3 24 12.2 WSW 11 15 6 8 1010.9 1006.4 0.0
10/01:30am 29.8 26.1 6.5 23 12.7 SW 15 19 8 10 1011.0 1006.5 0.0
10/01:00am 30.5 26.8 6.4 22 13.2 SW 15 19 8 10 1011.1 1006.6 0.0
10/12:30am 30.9 27.5 6.0 21 13.6 WSW 13 19 7 10 1011.2 1006.7 0.0
10/12:00am 31.6 27.8 5.9 20 14.0 WSW 15 20 8 11 1011.2 1006.7 0.0
 
Date/Time
WST
Temp
°C
App
Temp
°C
Dew
Point
°C
Rel
Hum
%
Delta-T
°C
Wind Press
QNH
hPa
Press
MSL
hPa
Rain since
9am
mm
Dir  Spd
km/h
Gust
km/h
Spd
kts
Gust
kts
09/11:30pm 32.3 27.7 5.7 19 14.5 WSW 19 24 10 13 1011.1 1006.6 0.0
09/11:00pm 32.8 28.2 5.4 18 14.9 WSW 19 28 10 15 1011.3 1006.8 0.0
09/10:30pm 33.3 28.7 5.8 18 15.1 WSW 19 24 10 13 1011.2 1006.7 0.0
09/10:00pm 34.0 28.8 5.5 17 15.7 WSW 22 30 12 16 1011.2 1006.7 0.0
09/09:30pm 34.3 29.9 4.9 16 16.0 WSW 17 24 9 13 1011.0 1006.5 0.0
09/09:00pm 35.0 30.0 3.5 14 16.9 WSW 19 24 10 13 1010.5 1006.0 0.0
09/08:30pm 36.2 31.0 -0.2 10 18.5 WNW 17 24 9 13 1009.8 1005.3 0.0
09/08:00pm 36.2 31.7 -0.2 10 18.5 WNW 13 17 7 9 1009.3 1004.8 0.0
09/07:30pm 37.4 31.5 -0.8 9 19.4 WNW 20 32 11 17 1009.0 1004.5 0.0
09/07:00pm 37.8 31.2 -0.5 9 19.6 NW 24 32 13 17 1008.6 1004.1 0.0
09/06:30pm 38.4 31.9 0.0 9 19.8 NW 24 32 13 17 1008.2 1003.7 0.0
09/06:00pm 39.2 32.4 0.6 9 20.2 NW 26 35 14 19 1007.8 1003.2 0.0
09/05:30pm 39.6 32.2 -0.8 8 20.7 NW 28 39 15 21 1007.4 1002.9 0.0
09/05:00pm 40.3 32.2 -0.3 8 21.1 NNW 32 44 17 24 1007.2 1002.7 0.0
09/04:30pm 40.9 33.6 0.2 8 21.4 NW 28 43 15 23 1007.1 1002.6 0.0
09/04:08pm 40.5 33.2 -0.1 8 21.2 NNW 28 50 15 27 1007.2 1002.7 0.0
09/04:00pm 40.0 33.8 -0.5 8 21.0 NW 22 32 12 17 1007.2 1002.7 0.0
09/03:30pm 39.9 32.4 1.1 9 20.5 WNW 30 44 16 24 1007.5 1003.0 0.0
09/03:09pm 40.6 33.2 1.6 9 20.9 NNW 30 48 16 26 1007.6 1003.1 0.0
09/03:00pm 40.2 31.8 1.3 9 20.7 NNW 35 52 19 28 1007.9 1003.4 0.0
09/02:30pm 40.2 34.1 2.8 10 20.3 NNW 24 48 13 26 1008.1 1003.6 0.0
09/02:00pm 40.0 31.4 2.6 10 20.3 NNW 37 50 20 27 1008.4 1003.9 0.0
09/01:39pm 40.3 32.7 2.8 10 20.4 NNW 32 50 17 27 1008.5 1004.0 0.0
09/01:30pm 40.2 32.0 2.8 10 20.3 NW 35 52 19 28 1008.7 1004.2 0.0
09/01:27pm 40.3 33.1 2.8 10 20.4 NW 30 52 16 28 1008.7 1004.2 0.0
09/01:25pm 40.1 33.2 2.7 10 20.3 NW 28 52 15 28 1008.7 1004.2 0.0
09/01:00pm 38.9 31.3 3.1 11 19.4 WNW 32 48 17 26 1009.0 1004.5 0.0
09/12:40pm 38.3 32.0 3.9 12 18.8 NNW 26 48 14 26 1009.5 1005.0 0.0
09/12:36pm 38.9 32.7 4.4 12 19.1 N 26 48 14 26 1009.4 1004.9 0.0
09/12:30pm 37.7 31.0 3.4 12 18.6 N 28 39 15 21 1009.6 1005.2 0.0
09/12:13pm 38.4 31.8 4.0 12 18.9 NW 28 46 15 25 1009.9 1005.4 0.0
09/12:00pm 38.7 33.2 4.2 12 19.0 NNW 22 37 12 20 1010.1 1005.6 0.0
09/11:30am 37.3 32.4 4.3 13 18.1 NW 19 35 10 19 1010.6 1006.1 0.0
09/11:00am 37.1 31.5 5.2 14 17.7 W 24 35 13 19 1011.1 1006.6 0.0
09/10:30am 35.6 30.9 5.0 15 16.8 NW 19 26 10 14 1011.4 1007.0 0.0
09/10:00am 35.4 31.2 5.8 16 16.4 WSW 17 24 9 13 1011.5 1007.1 0.0
09/09:30am 34.9 30.8 6.2 17 16.0 WSW 17 26 9 14 1011.8 1007.3 0.0
09/09:00am 33.4 30.4 5.9 18 15.2 SW 11 17 6 9 1011.9 1007.4 0.0
09/08:30am 32.6 30.1 6.7 20 14.4 SW 9 17 5 9 1011.6 1007.2 0.0
09/08:00am 31.6 28.9 7.3 22 13.6 SW 11 20 6 11 1011.6 1007.2 0.0
09/07:30am 30.7 27.6 7.2 23 13.0 SSW 13 17 7 9 1011.5 1007.1 0.0
09/07:00am 29.2 26.1 7.2 25 12.1 SW 13 17 7 9 1011.2 1006.7 0.0
09/06:30am 27.3 24.1 6.7 27 11.1 SW 13 15 7 8 1010.9 1006.4 0.0
09/06:00am 25.7 22.8 6.3 29 10.3 SW 11 17 6 9 1010.7 1006.2 0.0
09/05:30am 23.8 21.1 5.7 31 9.4 SW 9 11 5 6 1010.6 1006.1 0.0
09/05:00am 23.6 20.9 5.5 31 9.4 WSW 9 11 5 6 1010.3 1005.8 0.0
09/04:30am 23.9 21.0 4.8 29 9.8 WSW 9 9 5 5 1010.1 1005.6 0.0
09/04:00am 24.5 21.6 4.8 28 10.1 WSW 9 13 5 7 1010.0 1005.5 0.0
09/03:30am 24.9 22.0 4.6 27 10.4 WSW 9 9 5 5 1009.8 1005.3 0.0
09/03:00am 25.6 22.3 4.7 26 10.8 SW 11 13 6 7 1009.4 1004.9 0.0
09/02:30am 26.1 23.2 4.6 25 11.1 WSW 9 11 5 6 1009.3 1004.8 0.0
09/02:00am 26.1 23.2 4.6 25 11.1 WSW 9 11 5 6 1009.4 1004.9 0.0
09/01:30am 27.3 24.7 4.4 23 11.9 WSW 7 9 4 5 1009.4 1004.9 0.0
09/01:00am 28.5 25.1 4.1 21 12.7 WSW 11 13 6 7 1009.4 1004.9 0.0
09/12:30am 28.8 25.5 4.3 21 12.8 WSW 11 13 6 7 1009.5 1005.0 0.0
09/12:00am 29.4 26.5 4.8 21 13.0 SW 9 13 5 7 1009.8 1005.3 0.0
 
Date/Time
WST
Temp
°C
App
Temp
°C
Dew
Point
°C
Rel
Hum
%
Delta-T
°C
Wind Press
QNH
hPa
Press
MSL
hPa
Rain since
9am
mm
Dir  Spd
km/h
Gust
km/h
Spd
kts
Gust
kts
08/11:30pm 30.2 27.3 4.8 20 13.5 SW 9 13 5 7 1010.0 1005.5 0.0
08/11:00pm 30.3 27.7 4.1 19 13.8 SSW 7 9 4 5 1010.2 1005.7 0.0
08/10:30pm 31.7 28.4 4.5 18 14.5 SW 11 15 6 8 1010.2 1005.7 0.0
08/10:00pm 32.5 28.4 4.3 17 15.1 SW 15 20 8 11 1010.2 1005.7 0.0
08/09:30pm 33.1 28.9 3.9 16 15.5 WSW 15 24 8 13 1010.0 1005.5 0.0
08/09:00pm 33.6 29.5 4.3 16 15.8 SW 15 24 8 13 1009.5 1005.0 0.0
08/08:30pm 34.3 29.8 4.0 15 16.3 SW 17 26 9 14 1009.2 1004.7 0.0
08/08:00pm 34.9 30.4 4.4 15 16.6 WSW 17 24 9 13 1008.7 1004.2 0.0
08/07:30pm 35.5 31.3 3.9 14 17.0 SW 15 20 8 11 1008.2 1003.7 0.0
08/07:00pm 36.2 31.5 3.4 13 17.7 SW 17 24 9 13 1007.8 1003.2 0.0
08/06:30pm 36.9 32.7 4.0 13 17.9 SW 15 24 8 13 1007.4 1002.9 0.0
08/06:00pm 39.0 32.9 0.4 9 20.2 NW 22 32 12 17 1006.8 1002.3 0.0
08/05:30pm 39.0 31.8 0.4 9 20.1 NW 28 37 15 20 1006.5 1002.0 0.0
08/05:00pm 39.8 32.6 1.0 9 20.5 NW 28 41 15 22 1006.1 1001.5 0.0
08/04:30pm 39.5 33.1 0.8 9 20.3 NW 24 37 13 20 1006.0 1001.4 0.0
08/04:00pm 40.1 33.0 1.2 9 20.7 NNW 28 44 15 24 1006.0 1001.4 0.0
08/03:30pm 40.1 34.4 2.7 10 20.3 NW 22 35 12 19 1006.2 1001.7 0.0
08/03:17pm 40.9 33.9 1.8 9 21.0 WNW 28 56 15 30 1006.2 1001.7 0.0
08/03:00pm 39.7 33.2 2.4 10 20.2 NW 26 39 14 21 1006.4 1001.9 0.0
08/02:34pm 40.6 32.8 3.1 10 20.5 WNW 33 54 18 29 1006.7 1002.2 0.0
08/02:30pm 40.6 33.0 3.1 10 20.5 W 32 54 17 29 1006.6 1002.1 0.0
08/02:27pm 40.6 33.8 3.1 10 20.5 W 28 48 15 26 1006.6 1002.1 0.0
08/02:00pm 40.1 35.2 4.0 11 20.0 WNW 19 39 10 21 1007.1 1002.6 0.0
08/01:30pm 40.3 33.4 2.8 10 20.4 WNW 28 43 15 23 1007.5 1003.0 0.0
08/01:00pm 39.0 32.8 4.4 12 19.2 W 26 37 14 20 1008.2 1003.7 0.0
08/12:30pm 37.6 31.3 5.6 14 17.9 W 28 41 15 22 1008.8 1004.3 0.0
08/12:00pm 37.4 31.0 5.4 14 17.9 W 28 39 15 21 1009.3 1004.8 0.0
08/11:56am 38.5 33.2 5.2 13 18.6 WNW 22 39 12 21 1009.3 1004.8 0.0
08/11:30am 36.6 31.3 4.8 14 17.5 W 22 35 12 19 1009.6 1005.2 0.0
08/11:00am 36.3 30.7 5.5 15 17.1 W 24 37 13 20 1010.0 1005.5 0.0
08/10:30am 35.6 31.6 6.8 17 16.3 WSW 17 30 9 16 1010.4 1005.9 0.0
08/10:00am 34.5 30.7 7.5 19 15.3 SW 17 26 9 14 1010.7 1006.2 0.0
08/09:30am 34.0 30.3 7.9 20 14.9 SW 17 28 9 15 1011.0 1006.5 0.0
08/09:00am 33.2 30.0 8.6 22 14.1 SW 15 22 8 12 1011.0 1006.5 0.0
08/08:30am 32.3 29.4 9.8 25 13.1 SW 15 20 8 11 1011.1 1006.6 0.0
08/08:00am 31.5 28.4 10.2 27 12.5 SW 17 24 9 13 1011.1 1006.6 0.0
08/07:30am 30.6 27.4 10.0 28 11.9 SW 17 26 9 14 1011.0 1006.5 0.0
08/07:00am 29.6 25.8 9.7 29 11.4 SW 20 28 11 15 1010.9 1006.4 0.0
08/06:30am 29.3 25.8 8.9 28 11.6 SW 17 26 9 14 1010.5 1006.0 0.0
08/06:00am 28.4 25.1 8.1 28 11.3 WSW 15 20 8 11 1010.1 1005.6 0.0
08/05:30am 27.4 25.1 7.3 28 11.0 W 9 13 5 7 1009.8 1005.3 0.0
08/05:00am 27.6 25.4 6.4 26 11.4 W 7 9 4 5 1009.1 1004.6 0.0
08/04:30am 28.0 24.8 6.7 26 11.6 WSW 13 17 7 9 1008.4 1003.9 0.0
08/04:00am 28.6 25.4 6.7 25 11.9 WSW 13 15 7 8 1008.0 1003.5 0.0
08/03:30am 29.3 25.2 6.0 23 12.6 WSW 17 20 9 11 1007.8 1003.2 0.0
08/03:00am 29.8 25.5 5.1 21 13.2 WSW 17 24 9 13 1007.4 1002.9 0.0
08/02:30am 30.4 25.6 4.9 20 13.6 SW 19 26 10 14 1007.4 1002.9 0.0
08/02:00am 30.6 26.3 5.1 20 13.7 SW 17 24 9 13 1007.4 1002.9 0.0
08/01:30am 31.3 27.3 4.9 19 14.1 SW 15 22 8 12 1007.6 1003.1 0.0
08/01:00am 32.1 26.8 4.8 18 14.7 WSW 22 32 12 17 1007.8 1003.2 0.0
08/12:30am 32.7 26.5 4.5 17 15.1 WSW 26 35 14 19 1007.5 1003.0 0.0
08/12:08am 33.2 26.2 4.0 16 15.6 WSW 30 48 16 26 1007.4 1002.9 0.0
08/12:00am 33.3 26.7 4.1 16 15.7 WSW 28 41 15 22 1007.4 1002.9 0.0
 
Date/Time
WST
Temp
°C
App
Temp
°C
Dew
Point
°C
Rel
Hum
%
Delta-T
°C
Wind Press
QNH
hPa
Press
MSL
hPa
Rain since
9am
mm
Dir  Spd
km/h
Gust
km/h
Spd
kts
Gust
kts
07/11:30pm 34.0 25.6 3.7 15 16.2 WSW 37 50 20 27 1007.6 1003.1 0.0
07/11:00pm 34.9 27.2 3.5 14 16.8 WSW 33 54 18 29 1007.5 1003.0 0.0
07/10:53pm 35.1 28.0 3.6 14 16.9 WSW 30 48 16 26 1007.5 1003.0 0.0
07/10:30pm 35.7 29.6 3.0 13 17.4 WSW 24 35 13 19 1007.5 1003.0 0.0
07/10:00pm 36.5 29.4 3.7 13 17.8 W 30 46 16 25 1007.3 1002.8 0.0
07/09:48pm 36.3 31.7 6.5 16 16.8 WNW 20 50 11 27 1007.1 1002.6 0.0
07/09:30pm 34.7 33.8 9.2 21 14.9 E 4 6 2 3 1006.4 1001.9 0.0
07/09:00pm 35.6 34.3 9.2 20 15.5 NNE 6 9 3 5 1006.0 1001.4 0.0
07/08:30pm 36.1 34.1 8.8 19 15.9 ENE 9 15 5 8 1005.9 1001.3 0.0
07/08:00pm 37.1 33.0 8.8 18 16.6 NE 20 26 11 14 1005.5 1001.0 0.0
07/07:30pm 38.3 33.4 7.1 15 17.9 NNE 22 32 12 17 1005.0 1000.5 0.0
07/07:00pm 39.0 35.8 6.7 14 18.5 N 13 22 7 12 1004.6 1000.1 0.0
07/06:30pm 40.0 37.4 4.0 11 19.9 WNW 7 11 4 6 1004.3 999.7 0.0
07/06:00pm 40.7 37.9 3.1 10 20.6 W 7 13 4 7 1004.0 999.4 0.0
07/05:30pm 40.7 36.7 3.1 10 20.6 NW 13 17 7 9 1003.8 999.2 0.0
07/05:00pm 40.9 35.3 3.3 10 20.7 NW 22 30 12 16 1003.7 999.1 0.0
07/04:30pm 41.4 36.2 3.7 10 20.9 NNW 20 30 11 16 1003.8 999.2 0.0
07/04:00pm 40.7 36.4 3.1 10 20.6 W 15 20 8 11 1004.0 999.4 0.0
07/03:30pm 41.7 37.9 3.9 10 21.0 WNW 13 28 7 15 1004.2 999.6 0.0
07/03:00pm 40.3 36.9 4.2 11 20.1 NE 11 20 6 11 1004.7 1000.2 0.0
07/02:30pm 42.1 37.2 4.2 10 21.2 N 19 28 10 15 1005.1 1000.6 0.0
07/02:00pm 40.9 35.9 4.6 11 20.4 N 20 39 11 21 1005.6 1001.1 0.0
07/01:30pm 41.7 37.0 5.3 11 20.7 E 19 26 10 14 1006.0 1001.4 0.0
07/01:00pm 41.3 36.5 4.9 11 20.6 E 19 28 10 15 1006.4 1001.9 0.0
07/12:30pm 39.3 36.0 4.7 12 19.3 E 11 22 6 12 1007.0 1002.5 0.0
07/12:00pm 40.2 35.4 5.4 12 19.7 E 20 33 11 18 1007.4 1002.9 0.0
07/11:30am 39.4 35.0 4.7 12 19.3 ESE 17 32 9 17 1008.0 1003.5 0.0
07/11:00am 38.4 34.4 5.1 13 18.6 SSE 15 28 8 15 1008.5 1004.0 0.0
07/10:30am 38.4 33.5 5.1 13 18.6 SE 20 30 11 16 1008.6 1004.1 0.0
07/10:00am 38.0 32.7 4.8 13 18.4 SSE 22 37 12 20 1008.9 1004.4 0.0
07/09:30am 37.1 32.2 5.2 14 17.7 SSE 20 32 11 17 1009.1 1004.6 0.0
07/09:00am 36.1 30.9 5.4 15 17.0 SSE 22 30 12 16 1009.4 1004.9 0.0
07/08:30am 35.7 31.0 6.0 16 16.6 SSE 20 33 11 18 1009.4 1004.9 0.0
07/08:00am 35.1 30.3 5.5 16 16.4 SSE 20 30 11 16 1009.3 1004.8 0.0
07/07:30am 33.9 29.5 4.6 16 15.8 S 17 24 9 13 1009.2 1004.7 0.0
07/07:00am 32.0 27.4 3.9 17 14.9 S 17 24 9 13 1009.1 1004.6 0.0
07/06:30am 29.9 26.2 4.5 20 13.4 SW 13 19 7 10 1009.0 1004.5 0.0
07/06:00am 27.2 23.5 4.3 23 11.9 SW 13 17 7 9 1008.9 1004.4 0.0

Other formats

Comma delimited format used in spreadsheet applications
http://www.bom.gov.au/fwo/IDW60801/IDW60801.94317.axf

JavaScript Object Notation format (JSON) in row-major order
http://www.bom.gov.au/fwo/IDW60801/IDW60801.94317.json

Data quality

Most of these data are generated automatically and are frequently updated. Quality checks on data are not normally performed. It is possible for incorrect values to appear. Refer to information at About Latest Weather Observations and please check the disclaimer before using these data.